Palm Bay, FL (32909)

3:31 AM EDT on August 28, 2016 (GMT -0400)
APRSWXNET | | Change Station

Elev 20 ft 27.87 °N, 80.64 °W | Updated 31 minutes ago

Partly Cloudy
Partly Cloudy
79.0 °F
Feels Like 84 °F
N
0.0
Wind Variable Wind from NE
Gusts 0.0 mph

Today
High -- | Low -- °F
--% Chance of Precip.
Yesterday
High -- | Low -- °F
Precip. -- in
Pressure 29.94 in
Visibility 10.0 miles
Clouds Few 5000 ft
Heat Index 84 °F
Dew Point 78.0 °F
Humidity 97%
Rainfall in
Snow Depth Not available.
6:59 AM 7:47 PM
Waning Crescent, 18% visible
METAR KMLB 280653Z AUTO 08004KT 10SM FEW050 27/25 A2994 RMK AO2 RAB19E38 SLP138 P0003 T02670250
Pressure 29.94 in
Visibility 10.0 miles
Clouds Few 5000 ft
Heat Index 84 °F
Dew Point 78.0 °F
Humidity 97%
Rainfall in
Snow Depth Not available.
6:59 AM 7:47 PM
Waning Crescent, 18% visible
METAR KMLB 280653Z AUTO 08004KT 10SM FEW050 27/25 A2994 RMK AO2 RAB19E38 SLP138 P0003 T02670250

10-Day Weather Forecast

Almanac

Astronomy

Aug. 28, 2016 Rise Set
Actual Time
Civil Twilight
Nautical Twilight
Astronomical Twilight
Moon
Length of Visible Light
Length of Day
Tomorrow will be .
, % of the Moon is Illuminated

Today's Extremes

State Highs State Lows

Community

WunderPhotos

Upload Photos

1,935,533 photos uploaded!

WunderBlog® & News

Nearby

Air Quality

  Air Quality AQ Index Pollutant
Not available.

Snow Depth

Station Depth Elevation

Earthquake Activity

City Distance Mag. Time & Date
Minimum magnitude displayed is 2.5.

Coastal Water Temperatures

Place Temperature

Stations

Nearby Weather Stations

Station Location Temp. Windchill Dew Point Humidity Wind Precip. Elev Updated Type
                   

Watches & Warnings

There are currently no watches in effect.